Time,TemperatureF,DewpointF,PressureIn,WindDirection,WindDirectionDegrees,WindSpeedMPH,WindSpeedGustMPH,Humidity,HourlyPrecipIn,Conditions,Clouds,dailyrainin,SoftwareType,DateUTC
2013-06-18 00:01:00,71.0,69.2,29.87,NE,55,0.0,0.0,94,0.01,-RA,FEW,0.00,WeatherDisplay:10.37,2013-06-18 05:01:00,
2013-06-18 00:06:00,70.9,69.4,29.87,NE,34,0.0,0.0,95,0.01,-RA,FEW,0.00,WeatherDisplay:10.37,2013-06-18 05:06:00,
2013-06-18 00:11:00,70.8,69.3,29.87,ENE,63,0.0,0.0,95,0.02,-RA,FEW,0.01,WeatherDisplay:10.37,2013-06-18 05:11:00,
2013-06-18 00:16:00,70.7,69.2,29.87,East,84,0.0,0.0,95,0.03,-RA,FEW,0.02,WeatherDisplay:10.37,2013-06-18 05:16:00,
2013-06-18 00:21:00,70.7,69.2,29.87,NW,305,0.0,0.0,95,0.03,-RA,FEW,0.02,WeatherDisplay:10.37,2013-06-18 05:21:00,
2013-06-18 00:26:00,70.6,69.1,29.87,North,349,0.0,0.0,95,0.03,-RA,FEW,0.02,WeatherDisplay:10.37,2013-06-18 05:26:00,
2013-06-18 00:31:00,70.5,69.0,29.87,North,5,0.0,0.0,95,0.04, +DZ,FEW,0.03,WeatherDisplay:10.37,2013-06-18 05:31:00,
2013-06-18 00:36:00,70.4,68.9,29.86,NE,38,0.0,0.0,95,0.04, +DZ,FEW,0.03,WeatherDisplay:10.37,2013-06-18 05:36:00,
2013-06-18 00:41:00,70.4,68.9,29.86,North,355,0.0,0.0,95,0.05, +DZ,FEW,0.04,WeatherDisplay:10.37,2013-06-18 05:41:00,
2013-06-18 00:47:00,70.3,69.1,29.86,NE,42,0.0,0.0,96,0.05, +DZ,FEW,0.04,WeatherDisplay:10.37,2013-06-18 05:47:00,
2013-06-18 00:52:00,70.3,68.8,29.86,East,101,0.0,0.0,95,0.05,-RA,FEW,0.04,WeatherDisplay:10.37,2013-06-18 05:52:00,
2013-06-18 00:57:00,70.3,69.1,29.86,NE,43,0.0,0.0,96,0.04,-RA,FEW,0.05,WeatherDisplay:10.37,2013-06-18 05:57:00,
2013-06-18 01:02:00,70.1,68.6,29.87,ENE,78,0.0,0.0,95,0.05,RA,FEW,0.05,WeatherDisplay:10.37,2013-06-18 06:02:00,
2013-06-18 01:07:00,70.1,68.6,29.86,ENE,76,0.0,0.0,95,0.06,RA,FEW,0.06,WeatherDisplay:10.37,2013-06-18 06:07:00,
2013-06-18 01:12:00,70.0,68.5,29.86,NE,51,0.0,0.0,95,0.05,RA,FEW,0.06,WeatherDisplay:10.37,2013-06-18 06:12:00,
2013-06-18 01:17:00,70.0,68.8,29.86,ENE,77,0.0,0.0,96,0.06,RA,FEW,0.08,WeatherDisplay:10.37,2013-06-18 06:17:00,
2013-06-18 01:22:00,69.9,68.7,29.86,NE,48,0.0,0.0,96,0.06,RA,FEW,0.09,WeatherDisplay:10.37,2013-06-18 06:22:00,
2013-06-18 01:27:00,69.9,68.7,29.86,East,86,0.0,0.0,96,0.08,RA,FEW,0.10,WeatherDisplay:10.37,2013-06-18 06:27:00,
2013-06-18 01:32:00,69.7,68.5,29.86,ESE,103,0.0,0.0,96,0.07,RA,FEW,0.10,WeatherDisplay:10.37,2013-06-18 06:32:00,
2013-06-18 01:37:00,69.6,68.1,29.86,East,80,0.0,0.0,95,0.08,RA,FEW,0.11,WeatherDisplay:10.37,2013-06-18 06:37:00,
2013-06-18 01:42:00,69.5,68.3,29.86,NE,53,0.0,0.0,96,0.07,RA,FEW,0.11,WeatherDisplay:10.37,2013-06-18 06:42:00,
2013-06-18 01:47:00,69.4,67.9,29.86,ENE,57,0.0,0.0,95,0.08,RA,FEW,0.12,WeatherDisplay:10.37,2013-06-18 06:47:00,
2013-06-18 01:52:00,69.3,67.8,29.85,ESE,103,0.0,0.0,95,0.08,RA,FEW,0.12,WeatherDisplay:10.37,2013-06-18 06:52:00,
2013-06-18 01:57:00,69.2,67.7,29.85,East,84,0.0,0.0,95,0.07,OVC,FEW,0.12,WeatherDisplay:10.37,2013-06-18 06:57:00,
2013-06-18 02:02:00,69.1,67.9,29.85,ENE,68,0.0,0.0,96,0.08,RA,FEW,0.13,WeatherDisplay:10.37,2013-06-18 07:02:00,
2013-06-18 02:07:00,69.0,67.8,29.84,NE,55,0.0,0.0,96,0.08,RA,FEW,0.14,WeatherDisplay:10.37,2013-06-18 07:07:00,
2013-06-18 02:12:00,68.8,67.6,29.84,ENE,71,0.0,0.0,96,0.09,RA,FEW,0.15,WeatherDisplay:10.37,2013-06-18 07:12:00,
2013-06-18 02:17:00,68.7,67.2,29.84,ENE,76,0.0,0.0,95,0.08,RA,FEW,0.16,WeatherDisplay:10.37,2013-06-18 07:17:00,
2013-06-18 02:22:00,68.6,67.1,29.84,ESE,113,1.2,0.0,95,0.08,RA,FEW,0.17,WeatherDisplay:10.37,2013-06-18 07:22:00,
2013-06-18 02:27:00,68.6,67.4,29.83,NNE,26,5.8,5.8,96,0.07,RA,FEW,0.17,WeatherDisplay:10.37,2013-06-18 07:27:00,
2013-06-18 02:32:00,68.5,67.3,29.84,East,88,0.0,0.0,96,0.08,RA,FEW,0.18,WeatherDisplay:10.37,2013-06-18 07:32:00,
2013-06-18 02:37:00,68.4,67.2,29.84,East,98,8.1,8.1,96,0.07,RA,FEW,0.18,WeatherDisplay:10.37,2013-06-18 07:37:00,
2013-06-18 02:42:00,68.4,67.2,29.83,NE,51,9.2,9.2,96,0.07,OVC,FEW,0.18,WeatherDisplay:10.37,2013-06-18 07:42:00,
2013-06-18 02:47:00,68.3,67.1,29.83,ENE,66,0.0,0.0,96,0.06,OVC,FEW,0.18,WeatherDisplay:10.37,2013-06-18 07:47:00,
2013-06-18 02:52:00,68.3,67.1,29.84,South,169,8.1,8.1,96,0.06,-RA,FEW,0.18,WeatherDisplay:10.37,2013-06-18 07:52:00,
2013-06-18 02:57:00,68.2,67.0,29.84,NNE,29,2.3,0.0,96,0.06,-RA,FEW,0.18,WeatherDisplay:10.37,2013-06-18 07:57:00,
2013-06-18 03:02:00,68.1,66.6,29.84,NNE,22,2.3,2.3,95,0.05,-DZ,FEW,0.18,WeatherDisplay:10.37,2013-06-18 08:02:00,
2013-06-18 03:07:00,68.0,66.5,29.84,NE,49,8.1,8.1,95,0.04,-DZ,FEW,0.18,WeatherDisplay:10.37,2013-06-18 08:07:00,
2013-06-18 03:12:00,67.9,66.4,29.84,ENE,67,5.8,5.8,95,0.03,-DZ,FEW,0.18,WeatherDisplay:10.37,2013-06-18 08:12:00,
2013-06-18 03:17:00,67.9,66.4,29.83,ESE,109,2.3,0.0,95,0.02,-DZ,FEW,0.18,WeatherDisplay:10.37,2013-06-18 08:17:00,
2013-06-18 03:22:00,67.8,66.3,29.83,East,87,1.2,1.2,95,0.01,-DZ,FEW,0.18,WeatherDisplay:10.37,2013-06-18 08:22:00,
2013-06-18 03:27:00,67.7,66.2,29.83,East,87,0.0,0.0,95,0.01,-DZ,FEW,0.18,WeatherDisplay:10.37,2013-06-18 08:27:00,
2013-06-18 03:32:00,67.7,66.2,29.82,NE,44,5.8,5.8,95,0.00,-DZ,FEW,0.18,WeatherDisplay:10.37,2013-06-18 08:32:00,
2013-06-18 03:37:00,67.6,66.4,29.83,East,80,3.5,3.5,96,0.00,CLR,FEW,0.18,WeatherDisplay:10.37,2013-06-18 08:37:00,
2013-06-18 03:42:00,67.5,66.0,29.83,ENE,73,0.0,0.0,95,0.00,CLR,FEW,0.18,WeatherDisplay:10.37,2013-06-18 08:42:00,
2013-06-18 03:47:00,67.5,66.0,29.83,ENE,61,2.3,2.3,95,0.00,CLR,FEW,0.18,WeatherDisplay:10.37,2013-06-18 08:47:00,
2013-06-18 03:52:00,67.4,66.2,29.83,NE,42,2.3,0.0,96,0.00,CLR,FEW,0.18,WeatherDisplay:10.37,2013-06-18 08:52:00,
2013-06-18 03:57:00,67.4,66.2,29.83,ENE,58,0.0,0.0,96,0.00,CLR,FEW,0.18,WeatherDisplay:10.37,2013-06-18 08:57:00,
2013-06-18 04:02:00,67.4,66.2,29.83,NNW,331,0.0,0.0,96,0.00,SCT,FEW,0.18,WeatherDisplay:10.37,2013-06-18 09:02:00,
2013-06-18 04:07:00,67.5,66.3,29.83,NNW,331,0.0,0.0,96,0.00,SCT,FEW,0.18,WeatherDisplay:10.37,2013-06-18 09:07:00,
2013-06-18 04:12:00,67.6,66.4,29.83,NE,36,2.3,2.3,96,0.00,SCT,FEW,0.18,WeatherDisplay:10.37,2013-06-18 09:12:00,
2013-06-18 04:17:00,67.5,66.3,29.83,NE,36,2.3,2.3,96,0.00,SCT,FEW,0.18,WeatherDisplay:10.37,2013-06-18 09:17:00,
2013-06-18 04:22:00,67.5,66.0,29.83,NE,38,0.0,0.0,95,0.00,SCT,FEW,0.18,WeatherDisplay:10.37,2013-06-18 09:22:00,
2013-06-18 04:27:00,67.4,65.9,29.83,ENE,57,0.0,0.0,95,0.00,SCT,FEW,0.18,WeatherDisplay:10.37,2013-06-18 09:27:00,
2013-06-18 04:32:00,67.4,66.2,29.83,ENE,57,0.0,0.0,96,0.00,SCT,FEW,0.18,WeatherDisplay:10.37,2013-06-18 09:32:00,
2013-06-18 04:37:00,67.4,66.2,29.83,ESE,108,0.0,0.0,96,0.00,SCT,FEW,0.18,WeatherDisplay:10.37,2013-06-18 09:37:00,
2013-06-18 04:42:00,67.4,66.2,29.83,SE,125,0.0,0.0,96,0.00,SCT,FEW,0.18,WeatherDisplay:10.37,2013-06-18 09:42:00,
2013-06-18 04:47:00,67.4,66.2,29.84,SSE,148,0.0,0.0,96,0.00,SCT,FEW,0.18,WeatherDisplay:10.37,2013-06-18 09:47:00,
2013-06-18 04:52:00,67.3,66.1,29.84,SSE,148,0.0,0.0,96,0.00,SCT,FEW,0.18,WeatherDisplay:10.37,2013-06-18 09:52:00,
2013-06-18 04:57:00,67.2,66.0,29.84,SSE,147,0.0,0.0,96,0.00,SCT,FEW,0.18,WeatherDisplay:10.37,2013-06-18 09:57:00,
2013-06-18 05:02:00,67.2,66.0,29.85,SSE,147,0.0,0.0,96,0.00,SCT,FEW,0.18,WeatherDisplay:10.37,2013-06-18 10:02:00,
2013-06-18 05:07:00,67.1,65.9,29.85,SSE,148,0.0,0.0,96,0.00,SCT,FEW,0.18,WeatherDisplay:10.37,2013-06-18 10:07:00,
2013-06-18 05:12:00,67.1,66.2,29.86,SSE,148,0.0,0.0,97,0.00,SCT,FEW,0.18,WeatherDisplay:10.37,2013-06-18 10:12:00,
2013-06-18 05:17:00,67.1,66.2,29.85,SSE,148,0.0,0.0,97,0.00,SCT,FEW,0.18,WeatherDisplay:10.37,2013-06-18 10:17:00,
2013-06-18 05:22:00,67.2,66.3,29.84,ESE,118,0.0,0.0,97,0.00,SCT,FEW,0.18,WeatherDisplay:10.37,2013-06-18 10:22:00,
2013-06-18 05:27:00,67.2,66.3,29.84,ESE,118,0.0,0.0,97,0.00,SCT,FEW,0.18,WeatherDisplay:10.37,2013-06-18 10:27:00,
2013-06-18 05:32:00,67.2,66.3,29.85,ESE,118,0.0,0.0,97,0.00,SCT,FEW,0.18,WeatherDisplay:10.37,2013-06-18 10:32:00,
2013-06-18 05:37:00,67.2,66.3,29.85,ESE,118,0.0,0.0,97,0.00,SCT,FEW,0.18,WeatherDisplay:10.37,2013-06-18 10:37:00,
2013-06-18 05:42:00,67.2,66.3,29.85,ESE,118,0.0,0.0,97,0.00,SCT,FEW,0.18,WeatherDisplay:10.37,2013-06-18 10:42:00,
2013-06-18 05:47:00,67.3,66.4,29.85,NNW,328,0.0,0.0,97,0.00,SCT,FEW,0.18,WeatherDisplay:10.37,2013-06-18 10:47:00,
2013-06-18 05:52:00,67.3,66.4,29.86,NNW,334,0.0,0.0,97,0.00,SCT,FEW,0.18,WeatherDisplay:10.37,2013-06-18 10:52:00,
2013-06-18 05:57:00,67.4,66.5,29.86,North,350,1.2,0.0,97,0.00,SCT,FEW,0.18,WeatherDisplay:10.37,2013-06-18 10:57:00,
2013-06-18 06:02:00,67.4,66.5,29.87,NW,324,5.8,5.8,97,0.00,OVC,FEW,0.18,WeatherDisplay:10.37,2013-06-18 11:02:00,
2013-06-18 06:07:00,67.3,66.4,29.87,NW,317,5.8,5.8,97,0.00,OVC,FEW,0.18,WeatherDisplay:10.37,2013-06-18 11:07:00,
2013-06-18 06:12:00,67.3,66.4,29.88,NW,325,4.6,4.6,97,0.00,OVC,FEW,0.18,WeatherDisplay:10.37,2013-06-18 11:12:00,
2013-06-18 06:18:00,67.3,66.4,29.89,NNE,27,4.6,4.6,97,0.00,OVC,FEW,0.19,WeatherDisplay:10.37,2013-06-18 11:18:00,
2013-06-18 06:23:00,67.3,66.1,29.89,North,351,6.9,6.9,96,0.01,RA,FEW,0.19,WeatherDisplay:10.37,2013-06-18 11:23:00,
2013-06-18 06:27:00,67.3,66.1,29.90,NNE,30,4.6,4.6,96,0.02,RA,FEW,0.20,WeatherDisplay:10.37,2013-06-18 11:27:00,
2013-06-18 06:33:00,67.2,66.0,29.90,WNW,290,4.6,4.6,96,0.03,RA,FEW,0.21,WeatherDisplay:10.37,2013-06-18 11:33:00,
2013-06-18 06:38:00,67.2,66.3,29.90,North,349,2.1,2.1,97,0.04,RA,FEW,0.22,WeatherDisplay:10.37,2013-06-18 11:38:00,
2013-06-18 06:43:00,67.2,66.3,29.90,NW,323,4.6,4.6,97,0.04,RA,FEW,0.22,WeatherDisplay:10.37,2013-06-18 11:43:00,
2013-06-18 06:48:00,67.1,66.2,29.90,NW,325,8.1,8.1,97,0.05,RA,FEW,0.23,WeatherDisplay:10.37,2013-06-18 11:48:00,
2013-06-18 06:53:00,67.0,65.8,29.90,NNE,17,10.4,10.4,96,0.06,RA,FEW,0.24,WeatherDisplay:10.37,2013-06-18 11:53:00,
2013-06-18 06:58:00,66.8,65.6,29.90,North,5,4.6,4.6,96,0.06,RA,FEW,0.24,WeatherDisplay:10.37,2013-06-18 11:58:00,
2013-06-18 07:03:00,66.8,65.6,29.90,NNW,341,3.5,3.5,96,0.06, +RA,FEW,0.24,WeatherDisplay:10.37,2013-06-18 12:03:00,
2013-06-18 07:08:00,66.8,65.6,29.90,NE,34,3.5,3.5,96,0.07, +RA,FEW,0.25,WeatherDisplay:10.37,2013-06-18 12:08:00,
2013-06-18 07:13:00,66.7,65.5,29.90,NNE,13,5.8,5.8,96,0.07, +RA,FEW,0.25,WeatherDisplay:10.37,2013-06-18 12:13:00,
2013-06-18 07:18:00,66.7,65.5,29.90,NNE,24,5.8,5.8,96,0.06, +RA,FEW,0.25,WeatherDisplay:10.37,2013-06-18 12:18:00,
2013-06-18 07:23:00,66.6,65.1,29.91,ENE,65,4.6,4.6,95,0.06, +RA,FEW,0.25,WeatherDisplay:10.37,2013-06-18 12:23:00,
2013-06-18 07:28:00,66.6,65.1,29.91,ENE,70,5.8,5.8,95,0.05, +RA,FEW,0.25,WeatherDisplay:10.37,2013-06-18 12:28:00,
2013-06-18 07:33:00,66.6,65.1,29.91,North,5,0.0,0.0,95,0.04, +RA,FEW,0.25,WeatherDisplay:10.37,2013-06-18 12:33:00,
2013-06-18 07:38:00,66.6,65.1,29.91,NW,310,0.0,0.0,95,0.03,-DZ,FEW,0.25,WeatherDisplay:10.37,2013-06-18 12:38:00,
2013-06-18 07:43:00,66.7,65.5,29.91,NE,43,1.2,1.2,96,0.03,-DZ,FEW,0.25,WeatherDisplay:10.37,2013-06-18 12:43:00,
2013-06-18 07:48:00,66.8,65.3,29.91,NNE,22,0.0,0.1,95,0.03,-DZ,FEW,0.26,WeatherDisplay:10.37,2013-06-18 12:48:00,
2013-06-18 07:53:00,66.9,65.7,29.91,NNW,334,0.0,0.0,96,0.02,-DZ,FEW,0.26,WeatherDisplay:10.37,2013-06-18 12:53:00,
2013-06-18 07:58:00,67.1,65.9,29.92,North,11,8.1,8.1,96,0.02,-DZ,FEW,0.26,WeatherDisplay:10.37,2013-06-18 12:58:00,
2013-06-18 08:03:00,67.1,65.6,29.92,North,360,3.5,3.5,95,0.02,SCT,FEW,0.26,WeatherDisplay:10.37,2013-06-18 13:03:00,
2013-06-18 08:08:00,67.2,65.7,29.92,North,10,0.0,0.0,95,0.01,SCT,FEW,0.26,WeatherDisplay:10.37,2013-06-18 13:08:00,
2013-06-18 08:13:00,67.5,66.0,29.92,NW,315,3.5,3.5,95,0.01,SCT,FEW,0.26,WeatherDisplay:10.37,2013-06-18 13:13:00,
2013-06-18 08:18:00,67.7,66.2,29.92,NNE,30,2.3,2.3,95,0.01,SCT,FEW,0.26,WeatherDisplay:10.37,2013-06-18 13:18:00,
2013-06-18 08:23:00,67.6,65.8,29.93,North,355,2.3,2.3,94,0.01,SCT,FEW,0.26,WeatherDisplay:10.37,2013-06-18 13:23:00,
2013-06-18 08:28:00,67.7,66.2,29.93,North,355,3.5,3.5,95,0.01,SCT,FEW,0.26,WeatherDisplay:10.37,2013-06-18 13:28:00,
2013-06-18 08:33:00,67.7,65.9,29.94,NW,309,0.0,0.7,94,0.01,SCT,FEW,0.26,WeatherDisplay:10.37,2013-06-18 13:33:00,
2013-06-18 08:38:00,67.7,65.9,29.93,NW,306,0.0,0.0,94,0.01,SCT,FEW,0.26,WeatherDisplay:10.37,2013-06-18 13:38:00,
2013-06-18 08:43:00,67.9,66.1,29.93,NNE,30,0.0,0.0,94,0.01,SCT,FEW,0.26,WeatherDisplay:10.37,2013-06-18 13:43:00,
2013-06-18 08:48:00,68.1,66.3,29.94,North,349,3.5,3.5,94,0.00,SCT,FEW,0.26,WeatherDisplay:10.37,2013-06-18 13:48:00,
2013-06-18 08:53:00,68.4,66.6,29.94,NNE,23,0.0,0.0,94,0.00,SCT,FEW,0.26,WeatherDisplay:10.37,2013-06-18 13:53:00,
2013-06-18 08:58:00,68.7,66.9,29.94,North,5,2.1,2.1,94,0.00,SCT,FEW,0.26,WeatherDisplay:10.37,2013-06-18 13:58:00,
2013-06-18 09:03:00,69.1,67.6,29.94,North,9,0.0,0.0,95,0.00,SCT,FEW,0.26,WeatherDisplay:10.37,2013-06-18 14:03:00,
2013-06-18 09:08:00,69.4,67.3,29.94,ENE,72,0.0,0.2,93,0.00,SCT,FEW,0.26,WeatherDisplay:10.37,2013-06-18 14:08:00,
2013-06-18 09:13:00,69.7,67.0,29.94,North,355,4.6,4.6,91,0.00,SCT,FEW,0.26,WeatherDisplay:10.37,2013-06-18 14:13:00,
2013-06-18 09:18:00,69.8,67.1,29.94,North,351,2.3,0.0,91,0.00,SCT,FEW,0.26,WeatherDisplay:10.37,2013-06-18 14:18:00,
2013-06-18 09:23:00,70.0,67.6,29.94,NNE,21,0.0,0.0,92,0.00,SCT,FEW,0.26,WeatherDisplay:10.37,2013-06-18 14:23:00,
2013-06-18 09:28:00,70.2,67.4,29.94,NNE,29,1.2,1.2,91,0.00,SCT,FEW,0.26,WeatherDisplay:10.37,2013-06-18 14:28:00,
2013-06-18 09:33:00,70.6,67.8,29.93,NNW,346,0.0,0.0,91,0.00,SCT,FEW,0.26,WeatherDisplay:10.37,2013-06-18 14:33:00,
2013-06-18 09:38:00,71.0,67.9,29.93,NNW,338,0.0,0.0,90,0.00,SCT,FEW,0.26,WeatherDisplay:10.37,2013-06-18 14:38:00,
2013-06-18 09:43:00,71.4,68.0,29.93,East,86,0.0,0.0,89,0.00,SCT,FEW,0.26,WeatherDisplay:10.37,2013-06-18 14:43:00,
2013-06-18 09:48:00,71.9,68.8,29.93,NNE,24,0.0,0.0,90,0.00,SCT,FEW,0.26,WeatherDisplay:10.37,2013-06-18 14:48:00,
2013-06-18 09:53:00,72.2,68.8,29.93,NE,41,2.3,2.3,89,0.00,SCT,FEW,0.26,WeatherDisplay:10.37,2013-06-18 14:53:00,
2013-06-18 09:58:00,72.2,68.1,29.93,North,355,1.2,0.0,87,0.00,SCT,FEW,0.26,WeatherDisplay:10.37,2013-06-18 14:58:00,
2013-06-18 10:03:00,72.2,68.1,29.93,NNW,348,1.2,0.0,87,0.00,FEW,,0.26,WeatherDisplay:10.37,2013-06-18 15:03:00,
2013-06-18 10:08:00,72.3,68.5,29.93,NNE,25,0.0,0.0,88,0.00,FEW,,0.26,WeatherDisplay:10.37,2013-06-18 15:08:00,
2013-06-18 10:13:00,72.5,68.7,29.94,NNW,334,0.0,0.0,88,0.00,FEW,,0.26,WeatherDisplay:10.37,2013-06-18 15:13:00,
2013-06-18 10:18:00,72.9,68.8,29.94,North,355,2.3,2.3,87,0.00,FEW,,0.26,WeatherDisplay:10.37,2013-06-18 15:18:00,
2013-06-18 10:23:00,73.1,68.0,29.94,NE,38,3.5,0.0,84,0.00,FEW,,0.26,WeatherDisplay:10.37,2013-06-18 15:23:00,
2013-06-18 10:28:00,73.5,68.7,29.94,NNE,16,0.0,0.0,85,0.00,FEW,,0.26,WeatherDisplay:10.37,2013-06-18 15:28:00,
2013-06-18 10:33:00,73.9,68.4,29.94,NNW,348,4.3,4.3,83,0.00,FEW,,0.26,WeatherDisplay:10.37,2013-06-18 15:33:00,
2013-06-18 10:38:00,73.9,68.1,29.94,NNE,31,4.6,4.6,82,0.00,FEW,,0.26,WeatherDisplay:10.37,2013-06-18 15:38:00,
2013-06-18 10:43:00,73.8,68.0,29.95,North,349,3.5,3.5,82,0.00,FEW,,0.26,WeatherDisplay:10.37,2013-06-18 15:43:00,
2013-06-18 10:48:00,74.2,68.3,29.94,NE,43,4.6,4.6,82,0.00,FEW,,0.26,WeatherDisplay:10.37,2013-06-18 15:48:00,
2013-06-18 10:53:00,75.2,69.3,29.94,North,9,3.5,3.5,82,0.00,FEW,,0.26,WeatherDisplay:10.37,2013-06-18 15:53:00,
2013-06-18 10:58:00,76.2,68.1,29.94,North,355,3.5,3.7,76,0.00,FEW,,0.26,WeatherDisplay:10.37,2013-06-18 15:58:00,
2013-06-18 11:03:00,76.5,68.0,29.95,NNW,346,5.8,5.8,75,0.00,FEW,,0.26,WeatherDisplay:10.37,2013-06-18 16:03:00,
2013-06-18 11:08:00,76.7,69.3,29.94,NNW,336,3.5,0.0,78,0.00,FEW,,0.26,WeatherDisplay:10.37,2013-06-18 16:08:00,
2013-06-18 11:13:00,76.9,69.5,29.94,NW,321,2.3,2.3,78,0.00,FEW,,0.26,WeatherDisplay:10.37,2013-06-18 16:13:00,
2013-06-18 11:18:00,77.1,68.9,29.94,NNW,340,5.8,5.8,76,0.00,FEW,,0.26,WeatherDisplay:10.37,2013-06-18 16:18:00,
2013-06-18 11:23:00,77.1,68.6,29.94,NNE,31,4.6,4.6,75,0.00,FEW,,0.26,WeatherDisplay:10.37,2013-06-18 16:23:00,
2013-06-18 11:28:00,77.2,68.7,29.94,North,5,2.3,0.0,75,0.00,FEW,,0.26,WeatherDisplay:10.37,2013-06-18 16:28:00,
2013-06-18 11:33:00,77.5,69.3,29.93,North,5,4.6,4.6,76,0.00,FEW,,0.26,WeatherDisplay:10.37,2013-06-18 16:33:00,
2013-06-18 11:38:00,77.7,69.1,29.94,NNE,19,5.8,5.8,75,0.00,FEW,,0.26,WeatherDisplay:10.37,2013-06-18 16:38:00,
2013-06-18 11:44:00,78.0,69.0,29.94,North,360,4.6,4.6,74,0.00,FEW,,0.26,WeatherDisplay:10.37,2013-06-18 16:44:00,
2013-06-18 11:49:00,78.3,68.9,29.94,North,360,5.8,5.8,73,0.00,FEW,,0.26,WeatherDisplay:10.37,2013-06-18 16:49:00,
2013-06-18 11:54:00,78.5,69.1,29.94,ENE,66,5.8,5.8,73,0.00,FEW,,0.26,WeatherDisplay:10.37,2013-06-18 16:54:00,
2013-06-18 11:59:00,78.8,70.2,29.94,NE,39,5.8,5.8,75,0.00,FEW,,0.26,WeatherDisplay:10.37,2013-06-18 16:59:00,
2013-06-18 12:04:00,79.1,69.3,29.94,NNW,342,4.6,4.6,72,0.00,FEW,,0.26,WeatherDisplay:10.37,2013-06-18 17:04:00,
2013-06-18 12:09:00,79.0,70.0,29.94,NNE,30,4.6,4.6,74,0.00,FEW,,0.26,WeatherDisplay:10.37,2013-06-18 17:09:00,
2013-06-18 12:14:00,79.3,69.9,29.94,NE,48,6.9,6.9,73,0.00,FEW,,0.26,WeatherDisplay:10.37,2013-06-18 17:14:00,
2013-06-18 12:19:00,79.6,71.0,29.94,ESE,104,5.8,5.8,75,0.00,FEW,,0.26,WeatherDisplay:10.37,2013-06-18 17:19:00,
2013-06-18 12:24:00,79.8,67.9,29.94,ENE,69,4.6,4.6,67,0.00,FEW,,0.26,WeatherDisplay:10.37,2013-06-18 17:24:00,
2013-06-18 12:29:00,80.1,69.8,29.94,NNE,23,3.2,3.2,71,0.00,FEW,,0.26,WeatherDisplay:10.37,2013-06-18 17:29:00,
2013-06-18 12:34:00,80.3,70.4,29.94,North,355,3.5,3.5,72,0.00,FEW,,0.26,WeatherDisplay:10.37,2013-06-18 17:34:00,
2013-06-18 12:39:00,80.1,68.2,29.94,ENE,76,3.5,3.5,67,0.00,FEW,,0.26,WeatherDisplay:10.37,2013-06-18 17:39:00,
2013-06-18 12:44:00,80.0,68.9,29.94,NE,56,8.1,8.1,69,0.00,FEW,,0.26,WeatherDisplay:10.37,2013-06-18 17:44:00,
2013-06-18 12:49:00,80.1,68.6,29.94,North,5,8.1,8.1,68,0.00,FEW,,0.26,WeatherDisplay:10.37,2013-06-18 17:49:00,
2013-06-18 12:54:00,80.3,68.3,29.94,NNW,336,2.3,2.3,67,0.00,FEW,,0.26,WeatherDisplay:10.37,2013-06-18 17:54:00,
2013-06-18 12:59:00,80.7,68.7,29.93,NNW,327,3.5,3.5,67,0.00,FEW,,0.26,WeatherDisplay:10.37,2013-06-18 17:59:00,
2013-06-18 13:04:00,80.9,69.8,29.93,North,355,1.2,1.2,69,0.00,FEW,,0.26,WeatherDisplay:10.37,2013-06-18 18:04:00,
2013-06-18 13:09:00,81.1,70.4,29.94,NE,45,3.5,3.5,70,0.00,FEW,,0.26,WeatherDisplay:10.37,2013-06-18 18:09:00,
2013-06-18 13:14:00,81.0,68.1,29.94,North,355,1.2,1.2,65,0.00,FEW,,0.26,WeatherDisplay:10.37,2013-06-18 18:14:00,
2013-06-18 13:19:00,80.9,69.3,29.94,NW,307,6.9,6.9,68,0.00,FEW,,0.26,WeatherDisplay:10.37,2013-06-18 18:19:00,
2013-06-18 13:24:00,81.1,69.1,29.94,NNW,332,4.6,4.6,67,0.00,FEW,,0.26,WeatherDisplay:10.37,2013-06-18 18:24:00,
2013-06-18 13:29:00,81.2,68.3,29.93,NNW,338,1.2,1.2,65,0.00,FEW,,0.26,WeatherDisplay:10.37,2013-06-18 18:29:00,
2013-06-18 13:34:00,81.5,69.5,29.93,ENE,63,1.2,1.2,67,0.00,FEW,,0.26,WeatherDisplay:10.37,2013-06-18 18:34:00,
2013-06-18 13:39:00,81.8,68.4,29.93,North,5,4.6,4.6,64,0.00,FEW,,0.26,WeatherDisplay:10.37,2013-06-18 18:39:00,
2013-06-18 13:44:00,81.8,69.3,29.93,NW,306,3.5,3.5,66,0.00,FEW,,0.26,WeatherDisplay:10.37,2013-06-18 18:44:00,
2013-06-18 13:49:00,82.1,70.5,29.93,NNW,331,3.5,3.5,68,0.00,FEW,,0.26,WeatherDisplay:10.37,2013-06-18 18:49:00,
2013-06-18 13:54:00,82.2,68.8,29.93,NE,40,3.5,3.5,64,0.00,FEW,,0.26,WeatherDisplay:10.37,2013-06-18 18:54:00,
2013-06-18 13:59:00,82.1,69.2,29.93,NNE,31,3.5,3.5,65,0.00,FEW,,0.26,WeatherDisplay:10.37,2013-06-18 18:59:00,
2013-06-18 14:04:00,82.2,69.7,29.92,ENE,74,2.3,2.3,66,0.00,FEW,,0.26,WeatherDisplay:10.37,2013-06-18 19:04:00,
2013-06-18 14:09:00,82.5,69.5,29.92,North,355,3.5,3.5,65,0.00,FEW,,0.26,WeatherDisplay:10.37,2013-06-18 19:09:00,
2013-06-18 14:14:00,82.6,70.5,29.92,WNW,299,3.5,3.5,67,0.00,FEW,,0.26,WeatherDisplay:10.37,2013-06-18 19:14:00,
2013-06-18 14:19:00,82.8,68.9,29.92,ENE,59,5.8,5.8,63,0.00,FEW,,0.26,WeatherDisplay:10.37,2013-06-18 19:19:00,
2013-06-18 14:24:00,82.8,70.3,29.92,NNW,341,4.6,4.6,66,0.00,SCT,FEW,0.26,WeatherDisplay:10.37,2013-06-18 19:24:00,
2013-06-18 14:29:00,82.9,69.0,29.92,NE,46,4.3,4.3,63,0.00,SCT,FEW,0.26,WeatherDisplay:10.37,2013-06-18 19:29:00,
2013-06-18 14:34:00,82.7,70.2,29.92,NNW,336,4.6,4.6,66,0.00,SCT,FEW,0.26,WeatherDisplay:10.37,2013-06-18 19:34:00,
2013-06-18 14:39:00,82.8,69.4,29.92,NW,325,5.8,5.8,64,0.00,SCT,FEW,0.26,WeatherDisplay:10.37,2013-06-18 19:39:00,
2013-06-18 14:44:00,82.8,69.4,29.92,NNW,347,3.5,3.5,64,0.00,SCT,FEW,0.26,WeatherDisplay:10.37,2013-06-18 19:44:00,
2013-06-18 14:49:00,83.0,69.6,29.92,NE,56,5.8,5.8,64,0.00,SCT,FEW,0.26,WeatherDisplay:10.37,2013-06-18 19:49:00,
2013-06-18 14:54:00,82.7,69.3,29.91,North,355,4.6,4.6,64,0.00,SCT,FEW,0.26,WeatherDisplay:10.37,2013-06-18 19:54:00,
2013-06-18 14:59:00,82.7,69.3,29.91,WNW,298,5.8,5.8,64,0.00,SCT,FEW,0.26,WeatherDisplay:10.37,2013-06-18 19:59:00,
2013-06-18 15:04:00,82.7,68.8,29.91,North,9,0.0,0.4,63,0.00,SCT,FEW,0.26,WeatherDisplay:10.37,2013-06-18 20:04:00,
2013-06-18 15:09:00,83.0,69.6,29.91,NNW,327,4.6,4.6,64,0.00,SCT,FEW,0.26,WeatherDisplay:10.37,2013-06-18 20:09:00,
2013-06-18 15:14:00,83.0,68.6,29.92,WNW,296,1.2,1.2,62,0.00,SCT,FEW,0.26,WeatherDisplay:10.37,2013-06-18 20:14:00,
2013-06-18 15:19:00,83.0,68.6,29.92,North,355,4.6,4.6,62,0.00,SCT,FEW,0.26,WeatherDisplay:10.37,2013-06-18 20:19:00,
2013-06-18 15:24:00,83.2,69.8,29.91,NNE,16,4.6,4.6,64,0.00,FEW,,0.26,WeatherDisplay:10.37,2013-06-18 20:24:00,
2013-06-18 15:29:00,83.4,71.7,29.91,NNW,337,3.5,3.5,68,0.00,FEW,,0.26,WeatherDisplay:10.37,2013-06-18 20:29:00,
2013-06-18 15:34:00,83.8,68.9,29.91,ENE,57,1.2,1.2,61,0.00,FEW,,0.26,WeatherDisplay:10.37,2013-06-18 20:34:00,
2013-06-18 15:39:00,83.9,69.0,29.91,NNW,336,3.5,0.0,61,0.00,FEW,,0.26,WeatherDisplay:10.37,2013-06-18 20:39:00,
2013-06-18 15:44:00,84.1,69.7,29.91,NE,35,5.8,5.8,62,0.00,FEW,,0.26,WeatherDisplay:10.37,2013-06-18 20:44:00,
2013-06-18 15:49:00,84.3,70.3,29.91,NNE,31,1.2,1.2,63,0.00,FEW,,0.26,WeatherDisplay:10.37,2013-06-18 20:49:00,
2013-06-18 15:54:00,84.5,69.1,29.91,NW,320,2.3,2.3,60,0.00,FEW,,0.26,WeatherDisplay:10.37,2013-06-18 20:54:00,
2013-06-18 15:59:00,84.6,70.1,29.91,NNE,26,4.6,4.6,62,0.00,FEW,,0.26,WeatherDisplay:10.37,2013-06-18 20:59:00,
2013-06-18 16:04:00,84.5,69.1,29.90,NNW,336,2.3,2.3,60,0.00,CLR,FEW,0.26,WeatherDisplay:10.37,2013-06-18 21:04:00,
2013-06-18 16:09:00,84.8,69.9,29.90,North,351,3.5,3.5,61,0.00,CLR,FEW,0.26,WeatherDisplay:10.37,2013-06-18 21:09:00,
2013-06-18 16:14:00,84.9,72.3,29.90,WNW,288,3.5,3.5,66,0.00,CLR,FEW,0.26,WeatherDisplay:10.37,2013-06-18 21:14:00,
2013-06-18 16:19:00,84.7,70.7,29.90,North,5,3.2,3.2,63,0.00,CLR,FEW,0.26,WeatherDisplay:10.37,2013-06-18 21:19:00,
2013-06-18 16:24:00,84.5,69.1,29.90,North,9,3.5,3.5,60,0.00,CLR,FEW,0.26,WeatherDisplay:10.37,2013-06-18 21:24:00,
2013-06-18 16:29:00,84.1,69.7,29.90,North,355,4.6,4.6,62,0.00,CLR,FEW,0.26,WeatherDisplay:10.37,2013-06-18 21:29:00,
2013-06-18 16:34:00,84.0,70.5,29.89,NNW,340,3.5,3.5,64,0.00,CLR,FEW,0.26,WeatherDisplay:10.37,2013-06-18 21:34:00,
2013-06-18 16:39:00,84.3,71.7,29.89,WNW,295,3.5,3.5,66,0.00,CLR,FEW,0.26,WeatherDisplay:10.37,2013-06-18 21:39:00,
2013-06-18 16:44:00,84.5,69.6,29.89,NNE,13,3.5,3.5,61,0.00,CLR,FEW,0.26,WeatherDisplay:10.37,2013-06-18 21:44:00,
2013-06-18 16:50:00,84.7,72.1,29.89,WNW,285,2.3,2.3,66,0.00,CLR,FEW,0.26,WeatherDisplay:10.37,2013-06-18 21:50:00,
2013-06-18 16:55:00,84.7,73.0,29.89,WNW,292,1.2,1.2,68,0.00,CLR,FEW,0.26,WeatherDisplay:10.37,2013-06-18 21:55:00,
2013-06-18 17:00:00,84.7,73.0,29.89,NNW,339,2.3,0.0,68,0.00,CLR,FEW,0.26,WeatherDisplay:10.37,2013-06-18 22:00:00,
2013-06-18 17:05:00,84.6,72.9,29.89,NNW,334,2.3,0.0,68,0.00,-DZ,FEW,0.26,WeatherDisplay:10.37,2013-06-18 22:05:00,
2013-06-18 17:10:00,84.7,71.2,29.89,WNW,284,4.6,4.6,64,0.00,-DZ,FEW,0.26,WeatherDisplay:10.37,2013-06-18 22:10:00,
2013-06-18 17:15:00,84.7,73.8,29.89,SSW,213,1.2,1.2,70,0.00,-DZ,FEW,0.26,WeatherDisplay:10.37,2013-06-18 22:15:00,
2013-06-18 17:20:00,84.4,73.5,29.89,West,261,0.0,0.0,70,0.00,-DZ,FEW,0.26,WeatherDisplay:10.37,2013-06-18 22:20:00,
2013-06-18 17:25:00,84.2,71.2,29.89,West,267,1.2,1.2,65,0.00,-DZ,FEW,0.26,WeatherDisplay:10.37,2013-06-18 22:25:00,
2013-06-18 17:30:00,83.9,70.9,29.89,WNW,289,4.6,4.6,65,0.00,-DZ,FEW,0.26,WeatherDisplay:10.37,2013-06-18 22:30:00,
2013-06-18 17:35:00,83.8,73.0,29.89,NE,46,3.5,0.0,70,0.00,-DZ,FEW,0.26,WeatherDisplay:10.37,2013-06-18 22:35:00,
2013-06-18 17:40:00,83.4,72.6,29.89,WNW,282,0.0,0.2,70,0.00,FEW,,0.26,WeatherDisplay:10.37,2013-06-18 22:40:00,
2013-06-18 17:45:00,82.9,71.3,29.89,WNW,294,2.3,2.3,68,0.00,FEW,,0.26,WeatherDisplay:10.37,2013-06-18 22:45:00,
2013-06-18 17:50:00,82.5,71.7,29.89,West,259,1.2,1.2,70,0.00,FEW,,0.26,WeatherDisplay:10.37,2013-06-18 22:50:00,
2013-06-18 17:55:00,82.1,71.8,29.89,West,259,1.2,0.0,71,0.00,FEW,,0.26,WeatherDisplay:10.37,2013-06-18 22:55:00,
2013-06-18 18:00:00,81.7,72.6,29.89,West,259,0.0,0.0,74,0.00,FEW,,0.26,WeatherDisplay:10.37,2013-06-18 23:00:00,
2013-06-18 18:05:00,81.3,73.4,29.89,West,259,0.0,0.0,77,0.00,CLR,FEW,0.26,WeatherDisplay:10.37,2013-06-18 23:05:00,
2013-06-18 18:10:00,81.1,72.8,29.90,West,260,1.2,0.0,76,0.00,CLR,FEW,0.26,WeatherDisplay:10.37,2013-06-18 23:10:00,
2013-06-18 18:15:00,81.1,73.6,29.90,SW,232,0.0,0.0,78,0.00,CLR,FEW,0.26,WeatherDisplay:10.37,2013-06-18 23:15:00,
2013-06-18 18:20:00,80.9,71.8,29.90,NW,311,1.2,0.0,74,0.00,CLR,FEW,0.26,WeatherDisplay:10.37,2013-06-18 23:20:00,
2013-06-18 18:25:00,80.7,72.4,29.90,NW,313,0.0,0.0,76,0.00,CLR,FEW,0.26,WeatherDisplay:10.37,2013-06-18 23:25:00,
2013-06-18 18:30:00,80.3,70.9,29.90,SW,234,1.2,1.2,73,0.00,CLR,FEW,0.26,WeatherDisplay:10.37,2013-06-18 23:30:00,
2013-06-18 18:35:00,79.9,71.3,29.90,SW,234,0.0,0.1,75,0.00,CLR,FEW,0.26,WeatherDisplay:10.37,2013-06-18 23:35:00,
2013-06-18 18:40:00,79.7,71.8,29.90,SW,234,0.0,0.0,77,0.00,CLR,FEW,0.26,WeatherDisplay:10.37,2013-06-18 23:40:00,
2013-06-18 18:45:00,79.5,72.0,29.90,WSW,237,0.0,0.0,78,0.00,CLR,FEW,0.26,WeatherDisplay:10.37,2013-06-18 23:45:00,
2013-06-18 18:50:00,79.3,71.8,29.90,SW,228,1.2,0.0,78,0.00,CLR,FEW,0.26,WeatherDisplay:10.37,2013-06-18 23:50:00,
2013-06-18 18:55:00,79.2,72.5,29.90,ENE,63,0.0,0.0,80,0.00,CLR,FEW,0.26,WeatherDisplay:10.37,2013-06-18 23:55:00,
2013-06-18 19:00:00,78.9,71.8,29.91,NE,40,0.0,0.0,79,0.00,CLR,FEW,0.26,WeatherDisplay:10.37,2013-06-19 00:00:00,
2013-06-18 19:05:00,78.6,71.2,29.91,West,263,2.3,2.3,78,0.00,CLR,FEW,0.26,WeatherDisplay:10.37,2013-06-19 00:05:00,
2013-06-18 19:10:00,78.4,71.7,29.91,WSW,250,1.2,1.2,80,0.00,CLR,FEW,0.26,WeatherDisplay:10.37,2013-06-19 00:10:00,
2013-06-18 19:15:00,78.2,71.5,29.91,WSW,250,0.0,0.0,80,0.00,CLR,FEW,0.26,WeatherDisplay:10.37,2013-06-19 00:15:00,
2013-06-18 19:20:00,78.0,71.0,29.91,WSW,250,0.0,0.0,79,0.00,CLR,FEW,0.26,WeatherDisplay:10.37,2013-06-19 00:20:00,
2013-06-18 19:25:00,77.6,70.9,29.91,WSW,250,0.0,0.0,80,0.00,CLR,FEW,0.26,WeatherDisplay:10.37,2013-06-19 00:25:00,
2013-06-18 19:30:00,77.2,70.9,29.91,WSW,250,0.0,0.0,81,0.00,CLR,FEW,0.26,WeatherDisplay:10.37,2013-06-19 00:30:00,
2013-06-18 19:35:00,76.7,70.8,29.91,WSW,250,0.0,0.0,82,0.00,CLR,FEW,0.26,WeatherDisplay:10.37,2013-06-19 00:35:00,
2013-06-18 19:40:00,76.4,70.9,29.91,WSW,250,0.0,0.0,83,0.00,CLR,FEW,0.26,WeatherDisplay:10.37,2013-06-19 00:40:00,
2013-06-18 19:45:00,76.1,70.9,29.91,WSW,250,0.0,0.0,84,0.00,CLR,FEW,0.26,WeatherDisplay:10.37,2013-06-19 00:45:00,
2013-06-18 19:50:00,75.8,70.6,29.92,WSW,250,0.0,0.0,84,0.00,CLR,FEW,0.26,WeatherDisplay:10.37,2013-06-19 00:50:00,
2013-06-18 19:58:00,75.3,70.5,29.92,WSW,250,0.0,0.0,85,0.00,CLR,FEW,0.26,WeatherDisplay:10.37,2013-06-19 00:58:00,
2013-06-18 20:03:00,75.0,70.5,29.92,WSW,250,0.0,0.0,86,0.00,CLR,FEW,0.26,WeatherDisplay:10.37,2013-06-19 01:03:00,
2013-06-18 20:08:00,74.7,70.6,29.92,WSW,250,0.0,0.0,87,0.00,CLR,FEW,0.26,WeatherDisplay:10.37,2013-06-19 01:08:00,
2013-06-18 20:13:00,74.4,70.3,29.91,WSW,250,0.0,0.0,87,0.00,CLR,FEW,0.26,WeatherDisplay:10.37,2013-06-19 01:13:00,
2013-06-18 20:18:00,74.2,70.7,29.92,WSW,250,0.0,0.0,89,0.00,CLR,FEW,0.26,WeatherDisplay:10.37,2013-06-19 01:18:00,
2013-06-18 20:24:00,73.9,70.5,29.92,WSW,250,0.0,0.0,89,0.00,CLR,FEW,0.26,WeatherDisplay:10.37,2013-06-19 01:24:00,
2013-06-18 20:29:00,73.9,70.5,29.91,WSW,250,0.0,0.0,89,0.00,CLR,FEW,0.26,WeatherDisplay:10.37,2013-06-19 01:29:00,
2013-06-18 20:34:00,73.8,70.4,29.91,WSW,250,0.0,0.0,89,0.00,CLR,FEW,0.26,WeatherDisplay:10.37,2013-06-19 01:34:00,
2013-06-18 20:39:00,73.7,70.3,29.91,WSW,250,0.0,0.0,89,0.00,CLR,FEW,0.26,WeatherDisplay:10.37,2013-06-19 01:39:00,
2013-06-18 20:44:00,73.7,70.6,29.91,WSW,250,0.0,0.0,90,0.00,CLR,FEW,0.26,WeatherDisplay:10.37,2013-06-19 01:44:00,
2013-06-18 20:49:00,73.4,70.3,29.91,WSW,250,0.0,0.0,90,0.00,CLR,FEW,0.26,WeatherDisplay:10.37,2013-06-19 01:49:00,
2013-06-18 20:54:00,73.2,70.1,29.91,WSW,250,0.0,0.0,90,0.00,CLR,FEW,0.26,WeatherDisplay:10.37,2013-06-19 01:54:00,
2013-06-18 20:59:00,73.0,70.2,29.91,WSW,250,0.0,0.0,91,0.00,CLR,FEW,0.26,WeatherDisplay:10.37,2013-06-19 01:59:00,
2013-06-18 21:04:00,72.7,69.9,29.91,WSW,250,0.0,0.0,91,0.00,CLR,FEW,0.26,WeatherDisplay:10.37,2013-06-19 02:04:00,
2013-06-18 21:09:00,72.5,70.0,29.91,WSW,250,0.0,0.0,92,0.00,CLR,FEW,0.26,WeatherDisplay:10.37,2013-06-19 02:09:00,
2013-06-18 21:14:00,72.4,69.9,29.92,WSW,250,0.0,0.0,92,0.00,CLR,FEW,0.26,WeatherDisplay:10.37,2013-06-19 02:14:00,
2013-06-18 21:19:00,72.1,69.6,29.92,WSW,250,0.0,0.0,92,0.00,CLR,FEW,0.26,WeatherDisplay:10.37,2013-06-19 02:19:00,
2013-06-18 21:24:00,71.9,69.4,29.92,WSW,250,0.0,0.0,92,0.00,CLR,FEW,0.26,WeatherDisplay:10.37,2013-06-19 02:24:00,
2013-06-18 21:29:00,71.8,69.7,29.92,WSW,250,0.0,0.0,93,0.00,CLR,FEW,0.26,WeatherDisplay:10.37,2013-06-19 02:29:00,
2013-06-18 21:34:00,71.6,69.5,29.92,WSW,250,0.0,0.0,93,0.00,CLR,FEW,0.26,WeatherDisplay:10.37,2013-06-19 02:34:00,
2013-06-18 21:39:00,71.6,69.8,29.92,WSW,250,0.0,0.0,94,0.00,CLR,FEW,0.26,WeatherDisplay:10.37,2013-06-19 02:39:00,
2013-06-18 21:44:00,71.5,69.7,29.93,WSW,250,0.0,0.0,94,0.00,CLR,FEW,0.26,WeatherDisplay:10.37,2013-06-19 02:44:00,
2013-06-18 21:49:00,71.4,69.6,29.93,WSW,250,0.0,0.0,94,0.00,CLR,FEW,0.26,WeatherDisplay:10.37,2013-06-19 02:49:00,
2013-06-18 21:54:00,71.3,69.5,29.93,WSW,250,0.0,0.0,94,0.00,CLR,FEW,0.26,WeatherDisplay:10.37,2013-06-19 02:54:00,
2013-06-18 21:59:00,71.2,69.4,29.94,WSW,250,0.0,0.0,94,0.00,CLR,FEW,0.26,WeatherDisplay:10.37,2013-06-19 02:59:00,
2013-06-18 22:04:00,71.1,69.6,29.94,WSW,250,0.0,0.0,95,0.00,,FEW,0.26,WeatherDisplay:10.37,2013-06-19 03:04:00,
2013-06-18 22:09:00,71.0,69.5,29.94,WSW,250,0.0,0.0,95,0.00,,FEW,0.26,WeatherDisplay:10.37,2013-06-19 03:09:00,
2013-06-18 22:14:00,70.9,69.4,29.94,WSW,250,0.0,0.0,95,0.00,,FEW,0.26,WeatherDisplay:10.37,2013-06-19 03:14:00,
2013-06-18 22:19:00,70.9,69.4,29.94,WSW,250,0.0,0.0,95,0.00,,FEW,0.26,WeatherDisplay:10.37,2013-06-19 03:19:00,
2013-06-18 22:24:00,70.9,69.4,29.94,WSW,250,0.0,0.0,95,0.00,CLR,FEW,0.26,WeatherDisplay:10.37,2013-06-19 03:24:00,
2013-06-18 22:29:00,70.8,69.3,29.94,WSW,250,0.0,0.0,95,0.00,CLR,FEW,0.26,WeatherDisplay:10.37,2013-06-19 03:29:00,
2013-06-18 22:34:00,70.8,69.3,29.94,WSW,250,0.0,0.0,95,0.00,CLR,FEW,0.26,WeatherDisplay:10.37,2013-06-19 03:34:00,
2013-06-18 22:39:00,70.9,69.7,29.94,WSW,250,0.0,0.0,96,0.00,CLR,FEW,0.26,WeatherDisplay:10.37,2013-06-19 03:39:00,
2013-06-18 22:44:00,70.9,69.4,29.94,WSW,250,0.0,0.0,95,0.00,CLR,FEW,0.26,WeatherDisplay:10.37,2013-06-19 03:44:00,
2013-06-18 22:49:00,70.8,69.3,29.94,WSW,250,0.0,0.0,95,0.00,CLR,FEW,0.26,WeatherDisplay:10.37,2013-06-19 03:49:00,
2013-06-18 22:54:00,70.7,69.2,29.94,WSW,250,0.0,0.0,95,0.00,CLR,FEW,0.26,WeatherDisplay:10.37,2013-06-19 03:54:00,
2013-06-18 22:59:00,70.6,69.1,29.94,WSW,250,0.0,0.0,95,0.00,CLR,FEW,0.26,WeatherDisplay:10.37,2013-06-19 03:59:00,
2013-06-18 23:01:00,70.6,69.1,29.94,WSW,250,0.0,0.0,95,0.00,CLR,FEW,0.26,WeatherDisplay:10.37,2013-06-19 04:01:00,
2013-06-18 23:06:00,70.4,68.9,29.94,WSW,250,0.0,0.0,95,0.00,CLR,FEW,0.26,WeatherDisplay:10.37,2013-06-19 04:06:00,
2013-06-18 23:11:00,70.4,68.9,29.94,WSW,250,0.0,0.0,95,0.00,CLR,FEW,0.26,WeatherDisplay:10.37,2013-06-19 04:11:00,
2013-06-18 23:16:00,70.3,69.1,29.94,WSW,250,0.0,0.0,96,0.00,CLR,FEW,0.26,WeatherDisplay:10.37,2013-06-19 04:16:00,
2013-06-18 23:21:00,70.3,69.1,29.94,WSW,250,0.0,0.0,96,0.00,CLR,FEW,0.26,WeatherDisplay:10.37,2013-06-19 04:21:00,
2013-06-18 23:26:00,70.3,69.1,29.94,WSW,250,0.0,0.0,96,0.00,CLR,FEW,0.26,WeatherDisplay:10.37,2013-06-19 04:26:00,
2013-06-18 23:31:00,70.3,69.1,29.94,WSW,250,0.0,0.0,96,0.00,CLR,FEW,0.26,WeatherDisplay:10.37,2013-06-19 04:31:00,
2013-06-18 23:36:00,70.3,69.1,29.94,WSW,250,0.0,0.0,96,0.00,CLR,FEW,0.26,WeatherDisplay:10.37,2013-06-19 04:36:00,
2013-06-18 23:41:00,70.2,69.0,29.94,WSW,250,0.0,0.0,96,0.00,CLR,FEW,0.26,WeatherDisplay:10.37,2013-06-19 04:41:00,
2013-06-18 23:46:00,70.1,68.9,29.95,WSW,250,0.0,0.0,96,0.00,CLR,FEW,0.26,WeatherDisplay:10.37,2013-06-19 04:46:00,
2013-06-18 23:51:00,69.9,68.7,29.95,NW,317,0.0,0.0,96,0.00,CLR,FEW,0.26,WeatherDisplay:10.37,2013-06-19 04:51:00,
2013-06-18 23:56:00,70.0,68.8,29.95,NW,313,0.0,0.0,96,0.00,CLR,FEW,0.26,WeatherDisplay:10.37,2013-06-19 04:56:00,